San Benito, California
Current Conditions -  °F | °C
As of 9:53 PM on Wednesday 28 Jan 2015 (Local Time) from KSNS Reporting Station
Clear Clear  
Wind Chill: 11°   Ceiling: Unl
Heat Index: 11°   Visibility: 10mi
Dew Point:   Wind: 0mph
Humidity: 74%   Direction: NA
Pressure: 30.16"   Gusts: NA
Location:  36.4824°N, 120.948°W
Report Text: KSNS 290553Z AUTO 00000KT 10SM CLR 11/06 A3016 RMK AO2 SLP223 T01060061 10217 20106 51005
Loading
Personal Weather Stations






























Interactive Weather Map New forecast layout! Learn more

10-Day Weather Forecast

Advertisements
Track Severe Weather on mobile